KHSP/HSP METAR and TAF weather

Enter ICAO airport designator
Station Type Date Time Source
KHSP METAR 2021/05/25 20:15 UTC NOAA

KHSP 252015Z AUTO 22014G18KT 5SM +TSRA BKN008 BKN015 OVC046 20/18 A3032 RMK AO2 LTG DSNT ALQS P0008 T02040183


Station Type Date Time Source
KHSP Decoded METAR 2021/05/25 20:15 UTC NOAA

Hot Springs / Ingalls, VA, United States (KHSP) 37-57N 079-50W
May 25, 2021 - 04:15 PM EDT / 2021.05.25 2015 UTC
Wind: from the SW (220 degrees) at 16 MPH (14 KT) gusting to 21 MPH (18 KT):0
Visibility: 5 mile(s):0
Sky conditions: overcast
Weather: heavy rain with thunder; Lightning observed
Precipitation last hour: 0.08 inches
Temperature: 68.7 F (20.4 C)
Dew Point: 64.9 F (18.3 C)
Relative Humidity: 87%
Pressure (altimeter): 30.32 in. Hg (1026 hPa)
ob: KHSP 252015Z AUTO 22014G18KT 5SM +TSRA BKN008 BKN015 OVC046 20/18 A3032 RMK AO2 LTG DSNT ALQS P0008 T02040183
cycle: 20

Station Type Date Time Source
KHSP TAF UTC NOAA

Error!

Example: see airport list